sensor_id;sensor_type;location;lat;lon;timestamp;temperature;humidity
18085;DHT22;9169;44.492;11.372;2023-04-15T00:00:02;15.60;38.30
18085;DHT22;9169;44.492;11.372;2023-04-15T00:02:40;15.60;38.30
18085;DHT22;9169;44.492;11.372;2023-04-15T00:05:09;15.70;38.40
18085;DHT22;9169;44.492;11.372;2023-04-15T00:07:38;15.70;38.40
18085;DHT22;9169;44.492;11.372;2023-04-15T00:10:08;15.70;38.40
18085;DHT22;9169;44.492;11.372;2023-04-15T00:12:36;15.60;38.50
18085;DHT22;9169;44.492;11.372;2023-04-15T00:15:07;15.60;38.60
18085;DHT22;9169;44.492;11.372;2023-04-15T00:17:36;15.70;38.80
18085;DHT22;9169;44.492;11.372;2023-04-15T00:20:08;15.60;38.70
18085;DHT22;9169;44.492;11.372;2023-04-15T00:22:36;15.70;39.00
18085;DHT22;9169;44.492;11.372;2023-04-15T00:25:06;15.60;38.90
18085;DHT22;9169;44.492;11.372;2023-04-15T00:27:34;15.60;39.00
18085;DHT22;9169;44.492;11.372;2023-04-15T00:30:04;15.60;39.00
18085;DHT22;9169;44.492;11.372;2023-04-15T00:32:33;15.60;39.20
18085;DHT22;9169;44.492;11.372;2023-04-15T00:35:03;15.60;39.30
18085;DHT22;9169;44.492;11.372;2023-04-15T00:37:33;15.70;39.60
18085;DHT22;9169;44.492;11.372;2023-04-15T00:40:04;15.60;39.70
18085;DHT22;9169;44.492;11.372;2023-04-15T00:42:34;15.60;39.90
18085;DHT22;9169;44.492;11.372;2023-04-15T00:45:04;15.60;40.10
18085;DHT22;9169;44.492;11.372;2023-04-15T00:47:34;15.60;40.20
18085;DHT22;9169;44.492;11.372;2023-04-15T00:50:04;15.60;40.30
18085;DHT22;9169;44.492;11.372;2023-04-15T00:52:34;15.60;40.60
18085;DHT22;9169;44.492;11.372;2023-04-15T00:55:04;15.60;40.70
18085;DHT22;9169;44.492;11.372;2023-04-15T00:57:34;15.60;40.70
18085;DHT22;9169;44.492;11.372;2023-04-15T01:00:04;15.60;40.90
18085;DHT22;9169;44.492;11.372;2023-04-15T01:02:34;15.60;40.90
18085;DHT22;9169;44.492;11.372;2023-04-15T01:05:04;15.60;40.90
18085;DHT22;9169;44.492;11.372;2023-04-15T01:07:35;15.60;41.00
18085;DHT22;9169;44.492;11.372;2023-04-15T01:10:06;15.60;40.90
18085;DHT22;9169;44.492;11.372;2023-04-15T01:12:34;15.60;41.00
18085;DHT22;9169;44.492;11.372;2023-04-15T01:15:04;15.60;41.10
18085;DHT22;9169;44.492;11.372;2023-04-15T01:17:34;15.70;41.00
18085;DHT22;9169;44.492;11.372;2023-04-15T01:20:07;15.70;41.00
18085;DHT22;9169;44.492;11.372;2023-04-15T01:22:40;15.70;41.10
18085;DHT22;9169;44.492;11.372;2023-04-15T01:25:11;15.70;41.10
18085;DHT22;9169;44.492;11.372;2023-04-15T01:27:42;15.70;41.10
18085;DHT22;9169;44.492;11.372;2023-04-15T01:30:11;15.70;41.00
18085;DHT22;9169;44.492;11.372;2023-04-15T01:32:40;15.70;41.00
18085;DHT22;9169;44.492;11.372;2023-04-15T01:35:27;15.80;41.00
18085;DHT22;9169;44.492;11.372;2023-04-15T01:37:59;15.80;41.00
18085;DHT22;9169;44.492;11.372;2023-04-15T01:40:30;15.80;41.10
18085;DHT22;9169;44.492;11.372;2023-04-15T01:43:00;15.80;41.10
18085;DHT22;9169;44.492;11.372;2023-04-15T01:45:30;15.80;41.10
18085;DHT22;9169;44.492;11.372;2023-04-15T01:47:58;15.80;41.00
18085;DHT22;9169;44.492;11.372;2023-04-15T01:50:28;15.80;41.20
18085;DHT22;9169;44.492;11.372;2023-04-15T01:52:56;15.80;41.10
18085;DHT22;9169;44.492;11.372;2023-04-15T01:55:25;15.80;41.60
18085;DHT22;9169;44.492;11.372;2023-04-15T01:57:54;15.80;41.10
18085;DHT22;9169;44.492;11.372;2023-04-15T02:00:24;15.80;41.10
18085;DHT22;9169;44.492;11.372;2023-04-15T02:02:53;15.90;41.20
18085;DHT22;9169;44.492;11.372;2023-04-15T02:05:24;15.90;41.20
18085;DHT22;9169;44.492;11.372;2023-04-15T02:07:53;15.90;41.20
18085;DHT22;9169;44.492;11.372;2023-04-15T02:10:22;15.90;41.20
18085;DHT22;9169;44.492;11.372;2023-04-15T02:12:51;15.90;41.20
18085;DHT22;9169;44.492;11.372;2023-04-15T02:15:21;15.90;41.30
18085;DHT22;9169;44.492;11.372;2023-04-15T02:17:51;15.90;41.30
18085;DHT22;9169;44.492;11.372;2023-04-15T02:20:22;15.90;41.40
18085;DHT22;9169;44.492;11.372;2023-04-15T02:22:50;15.90;41.50
18085;DHT22;9169;44.492;11.372;2023-04-15T02:25:19;15.90;41.50
18085;DHT22;9169;44.492;11.372;2023-04-15T02:27:48;15.90;41.50
18085;DHT22;9169;44.492;11.372;2023-04-15T02:30:17;15.90;41.60
18085;DHT22;9169;44.492;11.372;2023-04-15T02:32:45;15.90;41.60
18085;DHT22;9169;44.492;11.372;2023-04-15T02:35:16;15.90;41.60
18085;DHT22;9169;44.492;11.372;2023-04-15T02:37:46;15.90;41.80
18085;DHT22;9169;44.492;11.372;2023-04-15T02:40:17;15.90;41.80
18085;DHT22;9169;44.492;11.372;2023-04-15T02:42:45;15.80;41.70
18085;DHT22;9169;44.492;11.372;2023-04-15T02:45:15;15.80;41.70
18085;DHT22;9169;44.492;11.372;2023-04-15T02:47:46;15.80;41.80
18085;DHT22;9169;44.492;11.372;2023-04-15T02:50:16;15.80;41.80
18085;DHT22;9169;44.492;11.372;2023-04-15T02:52:45;15.70;41.70
18085;DHT22;9169;44.492;11.372;2023-04-15T02:55:13;15.70;41.80
18085;DHT22;9169;44.492;11.372;2023-04-15T02:57:44;15.70;41.90
18085;DHT22;9169;44.492;11.372;2023-04-15T03:00:13;15.70;41.90
18085;DHT22;9169;44.492;11.372;2023-04-15T03:02:45;15.70;42.00
18085;DHT22;9169;44.492;11.372;2023-04-15T03:05:17;15.70;41.90
18085;DHT22;9169;44.492;11.372;2023-04-15T03:07:49;15.70;42.00
18085;DHT22;9169;44.492;11.372;2023-04-15T03:10:18;15.70;41.90
18085;DHT22;9169;44.492;11.372;2023-04-15T03:12:47;15.60;42.00
18085;DHT22;9169;44.492;11.372;2023-04-15T03:15:18;15.60;42.10
18085;DHT22;9169;44.492;11.372;2023-04-15T03:17:50;15.60;42.10
18085;DHT22;9169;44.492;11.372;2023-04-15T03:20:20;15.60;42.10
18085;DHT22;9169;44.492;11.372;2023-04-15T03:22:49;15.60;42.10
18085;DHT22;9169;44.492;11.372;2023-04-15T03:25:20;15.50;42.00
18085;DHT22;9169;44.492;11.372;2023-04-15T03:27:48;15.60;42.10
18085;DHT22;9169;44.492;11.372;2023-04-15T03:30:17;15.50;42.10
18085;DHT22;9169;44.492;11.372;2023-04-15T03:32:46;15.50;42.10
18085;DHT22;9169;44.492;11.372;2023-04-15T03:35:15;15.50;42.10
18085;DHT22;9169;44.492;11.372;2023-04-15T03:37:45;15.50;42.20
18085;DHT22;9169;44.492;11.372;2023-04-15T03:40:15;15.50;42.20
18085;DHT22;9169;44.492;11.372;2023-04-15T03:42:44;15.50;42.30
18085;DHT22;9169;44.492;11.372;2023-04-15T03:45:13;15.50;42.20
18085;DHT22;9169;44.492;11.372;2023-04-15T03:47:41;15.50;42.20
18085;DHT22;9169;44.492;11.372;2023-04-15T03:50:10;15.50;42.20
18085;DHT22;9169;44.492;11.372;2023-04-15T03:52:39;15.50;42.20
18085;DHT22;9169;44.492;11.372;2023-04-15T03:55:09;15.50;42.20
18085;DHT22;9169;44.492;11.372;2023-04-15T03:57:38;15.40;42.00
18085;DHT22;9169;44.492;11.372;2023-04-15T04:00:07;15.30;42.00
18085;DHT22;9169;44.492;11.372;2023-04-15T04:02:39;15.40;42.00
18085;DHT22;9169;44.492;11.372;2023-04-15T04:05:08;15.40;41.90
18085;DHT22;9169;44.492;11.372;2023-04-15T04:07:36;15.40;41.80
18085;DHT22;9169;44.492;11.372;2023-04-15T04:10:06;15.40;41.70
18085;DHT22;9169;44.492;11.372;2023-04-15T04:12:36;15.40;41.70
18085;DHT22;9169;44.492;11.372;2023-04-15T04:15:06;15.40;41.70
18085;DHT22;9169;44.492;11.372;2023-04-15T04:17:35;15.40;41.70
18085;DHT22;9169;44.492;11.372;2023-04-15T04:20:05;15.40;41.70
18085;DHT22;9169;44.492;11.372;2023-04-15T04:22:39;15.40;41.70
18085;DHT22;9169;44.492;11.372;2023-04-15T04:25:08;15.40;41.60
18085;DHT22;9169;44.492;11.372;2023-04-15T04:27:38;15.30;41.40
18085;DHT22;9169;44.492;11.372;2023-04-15T04:30:08;15.30;41.40
18085;DHT22;9169;44.492;11.372;2023-04-15T04:32:36;15.30;41.40
18085;DHT22;9169;44.492;11.372;2023-04-15T04:35:05;15.30;41.30
18085;DHT22;9169;44.492;11.372;2023-04-15T04:37:34;15.30;41.30
18085;DHT22;9169;44.492;11.372;2023-04-15T04:40:03;15.30;41.40
18085;DHT22;9169;44.492;11.372;2023-04-15T04:42:32;15.30;41.40
18085;DHT22;9169;44.492;11.372;2023-04-15T04:45:06;15.30;41.30
18085;DHT22;9169;44.492;11.372;2023-04-15T04:47:34;15.30;41.40
18085;DHT22;9169;44.492;11.372;2023-04-15T04:50:03;15.30;41.30
18085;DHT22;9169;44.492;11.372;2023-04-15T04:52:32;15.30;41.30
18085;DHT22;9169;44.492;11.372;2023-04-15T04:55:01;15.30;41.30
18085;DHT22;9169;44.492;11.372;2023-04-15T04:57:30;15.30;41.50
18085;DHT22;9169;44.492;11.372;2023-04-15T04:59:59;15.20;41.30
18085;DHT22;9169;44.492;11.372;2023-04-15T05:02:29;15.20;41.50
18085;DHT22;9169;44.492;11.372;2023-04-15T05:04:58;15.10;41.50
18085;DHT22;9169;44.492;11.372;2023-04-15T05:07:27;15.10;41.50
18085;DHT22;9169;44.492;11.372;2023-04-15T05:09:56;15.10;41.60
18085;DHT22;9169;44.492;11.372;2023-04-15T05:12:24;15.10;41.60
18085;DHT22;9169;44.492;11.372;2023-04-15T05:14:53;15.10;41.60
18085;DHT22;9169;44.492;11.372;2023-04-15T05:17:22;15.00;41.50
18085;DHT22;9169;44.492;11.372;2023-04-15T05:19:52;15.00;41.50
18085;DHT22;9169;44.492;11.372;2023-04-15T05:22:21;15.00;41.50
18085;DHT22;9169;44.492;11.372;2023-04-15T05:24:50;15.00;41.60
18085;DHT22;9169;44.492;11.372;2023-04-15T05:27:18;14.90;41.50
18085;DHT22;9169;44.492;11.372;2023-04-15T05:29:48;14.90;41.60
18085;DHT22;9169;44.492;11.372;2023-04-15T05:32:17;14.90;41.80
18085;DHT22;9169;44.492;11.372;2023-04-15T05:34:46;14.90;41.80
18085;DHT22;9169;44.492;11.372;2023-04-15T05:37:16;14.80;41.80
18085;DHT22;9169;44.492;11.372;2023-04-15T05:39:47;14.80;41.80
18085;DHT22;9169;44.492;11.372;2023-04-15T05:42:16;14.80;42.00
18085;DHT22;9169;44.492;11.372;2023-04-15T05:44:46;14.80;41.90
18085;DHT22;9169;44.492;11.372;2023-04-15T05:47:15;14.80;41.90
18085;DHT22;9169;44.492;11.372;2023-04-15T05:49:43;14.80;41.90
18085;DHT22;9169;44.492;11.372;2023-04-15T05:52:12;14.80;42.10
18085;DHT22;9169;44.492;11.372;2023-04-15T05:54:42;14.80;42.10
18085;DHT22;9169;44.492;11.372;2023-04-15T05:57:11;14.80;42.20
18085;DHT22;9169;44.492;11.372;2023-04-15T05:59:40;14.80;42.20
18085;DHT22;9169;44.492;11.372;2023-04-15T06:02:09;14.80;42.20
18085;DHT22;9169;44.492;11.372;2023-04-15T06:04:38;14.80;42.20
18085;DHT22;9169;44.492;11.372;2023-04-15T06:07:07;14.80;42.30
18085;DHT22;9169;44.492;11.372;2023-04-15T06:09:36;14.90;42.40
18085;DHT22;9169;44.492;11.372;2023-04-15T06:12:06;14.90;42.40
18085;DHT22;9169;44.492;11.372;2023-04-15T06:14:38;14.90;42.40
18085;DHT22;9169;44.492;11.372;2023-04-15T06:17:07;14.90;42.30
18085;DHT22;9169;44.492;11.372;2023-04-15T06:19:36;15.00;42.50
18085;DHT22;9169;44.492;11.372;2023-04-15T06:22:05;15.00;42.40
18085;DHT22;9169;44.492;11.372;2023-04-15T06:24:34;15.00;42.30
18085;DHT22;9169;44.492;11.372;2023-04-15T06:27:03;15.00;42.30
18085;DHT22;9169;44.492;11.372;2023-04-15T06:29:33;15.10;42.40
18085;DHT22;9169;44.492;11.372;2023-04-15T06:32:02;15.10;42.50
18085;DHT22;9169;44.492;11.372;2023-04-15T06:34:30;15.10;42.50
18085;DHT22;9169;44.492;11.372;2023-04-15T06:36:59;15.20;42.60
18085;DHT22;9169;44.492;11.372;2023-04-15T06:39:28;15.20;42.70
18085;DHT22;9169;44.492;11.372;2023-04-15T06:41:57;15.20;42.70
18085;DHT22;9169;44.492;11.372;2023-04-15T06:44:25;15.30;42.70
18085;DHT22;9169;44.492;11.372;2023-04-15T06:46:55;15.30;42.80
18085;DHT22;9169;44.492;11.372;2023-04-15T06:49:24;15.30;42.80
18085;DHT22;9169;44.492;11.372;2023-04-15T06:51:53;15.30;42.80
18085;DHT22;9169;44.492;11.372;2023-04-15T06:54:21;15.40;42.90
18085;DHT22;9169;44.492;11.372;2023-04-15T06:56:51;15.40;42.80
18085;DHT22;9169;44.492;11.372;2023-04-15T06:59:19;15.40;42.80
18085;DHT22;9169;44.492;11.372;2023-04-15T07:01:48;15.40;42.80
18085;DHT22;9169;44.492;11.372;2023-04-15T07:04:18;15.40;42.70
18085;DHT22;9169;44.492;11.372;2023-04-15T07:06:47;15.50;42.90
18085;DHT22;9169;44.492;11.372;2023-04-15T07:09:16;15.50;42.90
18085;DHT22;9169;44.492;11.372;2023-04-15T07:11:45;15.50;42.80
18085;DHT22;9169;44.492;11.372;2023-04-15T07:14:14;15.50;42.90
18085;DHT22;9169;44.492;11.372;2023-04-15T07:16:42;15.60;42.90
18085;DHT22;9169;44.492;11.372;2023-04-15T07:19:11;15.60;42.90
18085;DHT22;9169;44.492;11.372;2023-04-15T07:21:41;15.70;43.00
18085;DHT22;9169;44.492;11.372;2023-04-15T07:24:10;15.70;42.90
18085;DHT22;9169;44.492;11.372;2023-04-15T07:26:38;15.70;42.80
18085;DHT22;9169;44.492;11.372;2023-04-15T07:29:07;15.80;42.80
18085;DHT22;9169;44.492;11.372;2023-04-15T07:31:35;15.80;42.70
18085;DHT22;9169;44.492;11.372;2023-04-15T07:34:06;15.80;42.60
18085;DHT22;9169;44.492;11.372;2023-04-15T07:36:34;15.90;42.70
18085;DHT22;9169;44.492;11.372;2023-04-15T07:39:05;15.90;42.70
18085;DHT22;9169;44.492;11.372;2023-04-15T07:41:33;15.90;42.60
18085;DHT22;9169;44.492;11.372;2023-04-15T07:44:02;15.90;42.60
18085;DHT22;9169;44.492;11.372;2023-04-15T07:46:31;16.00;42.70
18085;DHT22;9169;44.492;11.372;2023-04-15T07:49:00;16.10;42.80
18085;DHT22;9169;44.492;11.372;2023-04-15T07:51:29;16.10;42.60
18085;DHT22;9169;44.492;11.372;2023-04-15T07:53:58;16.20;42.80
18085;DHT22;9169;44.492;11.372;2023-04-15T07:56:28;16.30;42.70
18085;DHT22;9169;44.492;11.372;2023-04-15T07:58:57;16.40;42.60
18085;DHT22;9169;44.492;11.372;2023-04-15T08:01:28;16.40;42.40
18085;DHT22;9169;44.492;11.372;2023-04-15T08:03:57;16.50;42.40
18085;DHT22;9169;44.492;11.372;2023-04-15T08:06:25;16.50;42.10
18085;DHT22;9169;44.492;11.372;2023-04-15T08:08:55;16.50;42.00
18085;DHT22;9169;44.492;11.372;2023-04-15T08:11:24;16.60;42.00
18085;DHT22;9169;44.492;11.372;2023-04-15T08:13:54;16.60;41.90
18085;DHT22;9169;44.492;11.372;2023-04-15T08:16:24;16.70;41.90
18085;DHT22;9169;44.492;11.372;2023-04-15T08:18:54;16.70;41.80
18085;DHT22;9169;44.492;11.372;2023-04-15T08:21:23;16.70;41.70
18085;DHT22;9169;44.492;11.372;2023-04-15T08:23:53;16.80;41.70
18085;DHT22;9169;44.492;11.372;2023-04-15T08:26:22;16.90;41.70
18085;DHT22;9169;44.492;11.372;2023-04-15T08:28:51;16.90;41.60
18085;DHT22;9169;44.492;11.372;2023-04-15T08:31:21;17.00;41.50
18085;DHT22;9169;44.492;11.372;2023-04-15T08:33:50;17.00;41.30
18085;DHT22;9169;44.492;11.372;2023-04-15T08:36:19;17.10;41.30
18085;DHT22;9169;44.492;11.372;2023-04-15T08:38:48;17.10;41.10
18085;DHT22;9169;44.492;11.372;2023-04-15T08:41:20;17.20;41.10
18085;DHT22;9169;44.492;11.372;2023-04-15T08:43:53;17.20;41.00
18085;DHT22;9169;44.492;11.372;2023-04-15T08:46:25;17.30;41.10
18085;DHT22;9169;44.492;11.372;2023-04-15T08:48:56;17.30;41.20
18085;DHT22;9169;44.492;11.372;2023-04-15T08:51:25;17.40;41.50
18085;DHT22;9169;44.492;11.372;2023-04-15T08:53:54;17.40;41.50
18085;DHT22;9169;44.492;11.372;2023-04-15T08:56:24;17.50;41.50
18085;DHT22;9169;44.492;11.372;2023-04-15T08:58:54;17.60;41.50
18085;DHT22;9169;44.492;11.372;2023-04-15T09:01:22;17.70;41.30
18085;DHT22;9169;44.492;11.372;2023-04-15T09:03:53;17.70;41.30
18085;DHT22;9169;44.492;11.372;2023-04-15T09:06:24;17.80;41.10
18085;DHT22;9169;44.492;11.372;2023-04-15T09:08:53;17.80;41.00
18085;DHT22;9169;44.492;11.372;2023-04-15T09:11:21;17.80;41.00
18085;DHT22;9169;44.492;11.372;2023-04-15T09:13:51;17.90;41.10
18085;DHT22;9169;44.492;11.372;2023-04-15T09:16:19;18.00;41.10
18085;DHT22;9169;44.492;11.372;2023-04-15T09:18:48;18.10;41.20
18085;DHT22;9169;44.492;11.372;2023-04-15T09:21:18;18.10;41.10
18085;DHT22;9169;44.492;11.372;2023-04-15T09:23:57;18.20;41.20
18085;DHT22;9169;44.492;11.372;2023-04-15T09:26:33;18.20;41.30
18085;DHT22;9169;44.492;11.372;2023-04-15T09:29:06;18.30;41.50
18085;DHT22;9169;44.492;11.372;2023-04-15T09:31:35;18.40;41.70
18085;DHT22;9169;44.492;11.372;2023-04-15T09:34:05;18.50;41.90
18085;DHT22;9169;44.492;11.372;2023-04-15T09:36:52;18.60;42.20
18085;DHT22;9169;44.492;11.372;2023-04-15T09:39:21;19.00;42.90
18085;DHT22;9169;44.492;11.372;2023-04-15T09:42:04;19.80;43.30
18085;DHT22;9169;44.492;11.372;2023-04-15T09:44:34;20.80;43.10
18085;DHT22;9169;44.492;11.372;2023-04-15T09:47:03;21.60;42.80
18085;DHT22;9169;44.492;11.372;2023-04-15T09:49:31;22.50;42.40
18085;DHT22;9169;44.492;11.372;2023-04-15T09:52:02;23.50;42.30
18085;DHT22;9169;44.492;11.372;2023-04-15T09:54:36;24.50;41.60
18085;DHT22;9169;44.492;11.372;2023-04-15T09:57:06;25.30;40.50
18085;DHT22;9169;44.492;11.372;2023-04-15T09:59:36;26.00;39.60
18085;DHT22;9169;44.492;11.372;2023-04-15T10:02:05;26.40;38.90
18085;DHT22;9169;44.492;11.372;2023-04-15T10:04:35;26.80;38.30
18085;DHT22;9169;44.492;11.372;2023-04-15T10:07:09;27.10;38.20
18085;DHT22;9169;44.492;11.372;2023-04-15T10:09:38;27.40;37.30
18085;DHT22;9169;44.492;11.372;2023-04-15T10:12:08;27.60;36.60
18085;DHT22;9169;44.492;11.372;2023-04-15T10:14:37;27.90;36.70
18085;DHT22;9169;44.492;11.372;2023-04-15T10:17:10;28.30;36.40
18085;DHT22;9169;44.492;11.372;2023-04-15T10:19:39;28.70;35.60
18085;DHT22;9169;44.492;11.372;2023-04-15T10:22:10;29.10;35.20
18085;DHT22;9169;44.492;11.372;2023-04-15T10:24:39;29.50;34.70
18085;DHT22;9169;44.492;11.372;2023-04-15T10:27:09;29.80;33.90
18085;DHT22;9169;44.492;11.372;2023-04-15T10:29:38;30.10;33.70
18085;DHT22;9169;44.492;11.372;2023-04-15T10:32:07;30.40;33.40
18085;DHT22;9169;44.492;11.372;2023-04-15T10:34:39;30.70;33.20
18085;DHT22;9169;44.492;11.372;2023-04-15T10:37:10;31.10;32.10
18085;DHT22;9169;44.492;11.372;2023-04-15T10:39:42;31.20;31.80
18085;DHT22;9169;44.492;11.372;2023-04-15T10:42:12;31.40;31.60
18085;DHT22;9169;44.492;11.372;2023-04-15T10:44:43;31.70;31.20
18085;DHT22;9169;44.492;11.372;2023-04-15T10:47:13;31.90;30.90
18085;DHT22;9169;44.492;11.372;2023-04-15T10:49:46;32.00;31.10
18085;DHT22;9169;44.492;11.372;2023-04-15T10:52:21;32.00;30.40
18085;DHT22;9169;44.492;11.372;2023-04-15T10:55:01;31.90;30.20
18085;DHT22;9169;44.492;11.372;2023-04-15T10:57:34;32.00;30.00
18085;DHT22;9169;44.492;11.372;2023-04-15T11:00:11;32.30;29.40
18085;DHT22;9169;44.492;11.372;2023-04-15T11:02:42;32.40;29.40
18085;DHT22;9169;44.492;11.372;2023-04-15T11:05:12;32.30;29.80
18085;DHT22;9169;44.492;11.372;2023-04-15T11:07:47;32.40;29.60
18085;DHT22;9169;44.492;11.372;2023-04-15T11:10:50;32.70;29.70
18085;DHT22;9169;44.492;11.372;2023-04-15T11:13:26;33.20;29.30
18085;DHT22;9169;44.492;11.372;2023-04-15T11:16:00;33.30;29.40
18085;DHT22;9169;44.492;11.372;2023-04-15T11:18:33;33.30;29.20
18085;DHT22;9169;44.492;11.372;2023-04-15T11:21:04;33.30;29.00
18085;DHT22;9169;44.492;11.372;2023-04-15T11:23:37;33.30;28.90
18085;DHT22;9169;44.492;11.372;2023-04-15T11:26:07;33.30;28.60
18085;DHT22;9169;44.492;11.372;2023-04-15T11:28:39;33.50;28.60
18085;DHT22;9169;44.492;11.372;2023-04-15T11:31:09;33.70;28.60
18085;DHT22;9169;44.492;11.372;2023-04-15T11:33:45;33.70;28.90
18085;DHT22;9169;44.492;11.372;2023-04-15T11:36:14;33.70;28.00
18085;DHT22;9169;44.492;11.372;2023-04-15T11:38:45;33.60;28.20
18085;DHT22;9169;44.492;11.372;2023-04-15T11:41:14;33.70;28.00
18085;DHT22;9169;44.492;11.372;2023-04-15T11:43:47;33.70;28.20
18085;DHT22;9169;44.492;11.372;2023-04-15T11:46:16;34.00;28.10
18085;DHT22;9169;44.492;11.372;2023-04-15T11:48:46;34.10;27.80
18085;DHT22;9169;44.492;11.372;2023-04-15T11:51:14;34.20;27.60
18085;DHT22;9169;44.492;11.372;2023-04-15T11:53:46;34.30;27.50
18085;DHT22;9169;44.492;11.372;2023-04-15T11:56:17;34.20;27.00
18085;DHT22;9169;44.492;11.372;2023-04-15T11:58:47;34.40;27.30
18085;DHT22;9169;44.492;11.372;2023-04-15T12:01:17;34.60;27.30
18085;DHT22;9169;44.492;11.372;2023-04-15T12:03:46;34.80;27.40
18085;DHT22;9169;44.492;11.372;2023-04-15T12:06:16;34.90;27.10
18085;DHT22;9169;44.492;11.372;2023-04-15T12:09:08;34.70;27.10
18085;DHT22;9169;44.492;11.372;2023-04-15T12:11:42;34.70;27.20
18085;DHT22;9169;44.492;11.372;2023-04-15T12:14:19;34.90;26.50
18085;DHT22;9169;44.492;11.372;2023-04-15T12:16:51;35.00;26.70
18085;DHT22;9169;44.492;11.372;2023-04-15T12:19:23;35.20;26.70
18085;DHT22;9169;44.492;11.372;2023-04-15T12:21:56;35.40;26.30
18085;DHT22;9169;44.492;11.372;2023-04-15T12:24:30;35.60;26.20
18085;DHT22;9169;44.492;11.372;2023-04-15T12:27:01;35.70;26.00
18085;DHT22;9169;44.492;11.372;2023-04-15T12:29:31;35.90;25.80
18085;DHT22;9169;44.492;11.372;2023-04-15T12:32:05;36.10;26.00
18085;DHT22;9169;44.492;11.372;2023-04-15T12:34:35;36.20;25.60
18085;DHT22;9169;44.492;11.372;2023-04-15T12:37:05;36.10;26.20
18085;DHT22;9169;44.492;11.372;2023-04-15T12:39:36;35.90;26.10
18085;DHT22;9169;44.492;11.372;2023-04-15T12:42:05;35.80;26.00
18085;DHT22;9169;44.492;11.372;2023-04-15T12:44:36;35.80;25.90
18085;DHT22;9169;44.492;11.372;2023-04-15T12:47:06;35.60;26.00
18085;DHT22;9169;44.492;11.372;2023-04-15T12:49:35;35.50;25.80
18085;DHT22;9169;44.492;11.372;2023-04-15T12:52:08;35.30;25.70
18085;DHT22;9169;44.492;11.372;2023-04-15T12:54:39;35.20;26.10
18085;DHT22;9169;44.492;11.372;2023-04-15T12:57:07;34.90;26.00
18085;DHT22;9169;44.492;11.372;2023-04-15T12:59:37;34.70;25.70
18085;DHT22;9169;44.492;11.372;2023-04-15T13:02:05;34.30;25.90
18085;DHT22;9169;44.492;11.372;2023-04-15T13:04:34;34.00;26.50
18085;DHT22;9169;44.492;11.372;2023-04-15T13:07:03;34.10;26.40
18085;DHT22;9169;44.492;11.372;2023-04-15T13:09:33;34.50;26.10
18085;DHT22;9169;44.492;11.372;2023-04-15T13:12:03;34.70;26.10
18085;DHT22;9169;44.492;11.372;2023-04-15T13:14:33;34.50;25.80
18085;DHT22;9169;44.492;11.372;2023-04-15T13:17:02;34.30;26.20
18085;DHT22;9169;44.492;11.372;2023-04-15T13:19:36;34.30;26.20
18085;DHT22;9169;44.492;11.372;2023-04-15T13:22:06;34.20;26.10
18085;DHT22;9169;44.492;11.372;2023-04-15T13:24:35;33.70;26.00
18085;DHT22;9169;44.492;11.372;2023-04-15T13:27:06;33.20;26.60
18085;DHT22;9169;44.492;11.372;2023-04-15T13:29:35;32.90;26.50
18085;DHT22;9169;44.492;11.372;2023-04-15T13:32:04;33.00;26.60
18085;DHT22;9169;44.492;11.372;2023-04-15T13:34:33;33.40;26.50
18085;DHT22;9169;44.492;11.372;2023-04-15T13:37:05;33.80;26.50
18085;DHT22;9169;44.492;11.372;2023-04-15T13:39:34;34.10;26.30
18085;DHT22;9169;44.492;11.372;2023-04-15T13:42:03;34.10;26.00
18085;DHT22;9169;44.492;11.372;2023-04-15T13:44:33;33.90;26.00
18085;DHT22;9169;44.492;11.372;2023-04-15T13:47:01;33.90;25.60
18085;DHT22;9169;44.492;11.372;2023-04-15T13:49:30;34.00;26.00
18085;DHT22;9169;44.492;11.372;2023-04-15T13:51:59;34.00;26.10
18085;DHT22;9169;44.492;11.372;2023-04-15T13:54:27;34.30;26.20
18085;DHT22;9169;44.492;11.372;2023-04-15T13:56:56;34.60;25.90
18085;DHT22;9169;44.492;11.372;2023-04-15T13:59:25;34.90;26.00
18085;DHT22;9169;44.492;11.372;2023-04-15T14:01:55;35.30;26.00
18085;DHT22;9169;44.492;11.372;2023-04-15T14:04:24;35.60;25.60
18085;DHT22;9169;44.492;11.372;2023-04-15T14:06:52;35.80;25.60
18085;DHT22;9169;44.492;11.372;2023-04-15T14:09:21;35.60;25.10
18085;DHT22;9169;44.492;11.372;2023-04-15T14:11:51;35.10;25.00
18085;DHT22;9169;44.492;11.372;2023-04-15T14:14:19;34.40;25.00
18085;DHT22;9169;44.492;11.372;2023-04-15T14:16:48;33.60;25.20
18085;DHT22;9169;44.492;11.372;2023-04-15T14:19:19;32.80;25.30
18085;DHT22;9169;44.492;11.372;2023-04-15T14:21:48;32.10;25.50
18085;DHT22;9169;44.492;11.372;2023-04-15T14:24:16;31.50;25.90
18085;DHT22;9169;44.492;11.372;2023-04-15T14:26:45;31.00;26.10
18085;DHT22;9169;44.492;11.372;2023-04-15T14:29:14;30.60;26.40
18085;DHT22;9169;44.492;11.372;2023-04-15T14:31:42;30.30;26.70
18085;DHT22;9169;44.492;11.372;2023-04-15T14:34:12;30.00;27.00
18085;DHT22;9169;44.492;11.372;2023-04-15T14:36:42;29.80;27.10
18085;DHT22;9169;44.492;11.372;2023-04-15T14:39:11;29.50;27.20
18085;DHT22;9169;44.492;11.372;2023-04-15T14:41:41;29.20;27.40
18085;DHT22;9169;44.492;11.372;2023-04-15T14:44:09;28.90;27.40
18085;DHT22;9169;44.492;11.372;2023-04-15T14:46:38;28.60;27.40
18085;DHT22;9169;44.492;11.372;2023-04-15T14:49:08;28.40;27.60
18085;DHT22;9169;44.492;11.372;2023-04-15T14:51:36;28.20;27.80
18085;DHT22;9169;44.492;11.372;2023-04-15T14:54:07;27.90;27.90
18085;DHT22;9169;44.492;11.372;2023-04-15T14:56:36;27.80;28.00
18085;DHT22;9169;44.492;11.372;2023-04-15T14:59:04;27.70;28.20
18085;DHT22;9169;44.492;11.372;2023-04-15T15:01:33;27.50;28.10
18085;DHT22;9169;44.492;11.372;2023-04-15T15:04:02;27.40;28.30
18085;DHT22;9169;44.492;11.372;2023-04-15T15:06:31;27.30;28.30
18085;DHT22;9169;44.492;11.372;2023-04-15T15:09:00;27.20;28.60
18085;DHT22;9169;44.492;11.372;2023-04-15T15:11:30;27.10;28.80
18085;DHT22;9169;44.492;11.372;2023-04-15T15:13:59;27.00;29.00
18085;DHT22;9169;44.492;11.372;2023-04-15T15:16:27;26.90;29.10
18085;DHT22;9169;44.492;11.372;2023-04-15T15:18:56;26.70;29.20
18085;DHT22;9169;44.492;11.372;2023-04-15T15:21:25;26.50;29.30
18085;DHT22;9169;44.492;11.372;2023-04-15T15:23:54;26.40;29.40
18085;DHT22;9169;44.492;11.372;2023-04-15T15:26:22;26.20;29.40
18085;DHT22;9169;44.492;11.372;2023-04-15T15:28:52;26.00;29.50
18085;DHT22;9169;44.492;11.372;2023-04-15T15:31:21;25.90;29.60
18085;DHT22;9169;44.492;11.372;2023-04-15T15:33:51;25.80;29.90
18085;DHT22;9169;44.492;11.372;2023-04-15T15:36:20;25.70;30.00
18085;DHT22;9169;44.492;11.372;2023-04-15T15:38:49;25.60;30.20
18085;DHT22;9169;44.492;11.372;2023-04-15T15:41:17;25.60;30.50
18085;DHT22;9169;44.492;11.372;2023-04-15T15:43:46;25.40;30.60
18085;DHT22;9169;44.492;11.372;2023-04-15T15:46:25;25.40;30.90